sensor_id;sensor_type;location;lat;lon;timestamp;P1;durP1;ratioP1;P2;durP2;ratioP2
38785;SDS011;24535;45.508;12.252;2022-11-06T00:00:15;20.92;;;14.13;;
38785;SDS011;24535;45.508;12.252;2022-11-06T00:02:41;16.85;;;12.93;;
38785;SDS011;24535;45.508;12.252;2022-11-06T00:05:07;18.25;;;13.55;;
38785;SDS011;24535;45.508;12.252;2022-11-06T00:07:51;20.00;;;14.32;;
38785;SDS011;24535;45.508;12.252;2022-11-06T00:10:17;18.95;;;13.40;;
38785;SDS011;24535;45.508;12.252;2022-11-06T00:12:43;20.13;;;15.27;;
38785;SDS011;24535;45.508;12.252;2022-11-06T00:15:09;18.83;;;13.57;;
38785;SDS011;24535;45.508;12.252;2022-11-06T00:17:34;18.67;;;14.25;;
38785;SDS011;24535;45.508;12.252;2022-11-06T00:20:01;22.67;;;14.02;;
38785;SDS011;24535;45.508;12.252;2022-11-06T00:22:26;17.60;;;13.77;;
38785;SDS011;24535;45.508;12.252;2022-11-06T00:24:51;19.15;;;13.70;;
38785;SDS011;24535;45.508;12.252;2022-11-06T00:27:17;20.88;;;14.73;;
38785;SDS011;24535;45.508;12.252;2022-11-06T00:29:43;19.73;;;14.18;;
38785;SDS011;24535;45.508;12.252;2022-11-06T00:32:08;16.25;;;12.63;;
38785;SDS011;24535;45.508;12.252;2022-11-06T00:34:33;19.45;;;14.70;;
38785;SDS011;24535;45.508;12.252;2022-11-06T00:36:59;25.95;;;14.40;;
38785;SDS011;24535;45.508;12.252;2022-11-06T00:39:24;16.73;;;13.20;;
38785;SDS011;24535;45.508;12.252;2022-11-06T00:41:50;18.17;;;13.52;;
38785;SDS011;24535;45.508;12.252;2022-11-06T00:44:15;18.73;;;13.88;;
38785;SDS011;24535;45.508;12.252;2022-11-06T00:46:41;16.90;;;12.65;;
38785;SDS011;24535;45.508;12.252;2022-11-06T00:49:06;14.55;;;12.80;;
38785;SDS011;24535;45.508;12.252;2022-11-06T00:51:33;17.08;;;12.32;;
38785;SDS011;24535;45.508;12.252;2022-11-06T00:54:00;16.83;;;13.10;;
38785;SDS011;24535;45.508;12.252;2022-11-06T00:56:27;18.67;;;13.40;;
38785;SDS011;24535;45.508;12.252;2022-11-06T00:58:54;19.75;;;13.80;;
38785;SDS011;24535;45.508;12.252;2022-11-06T01:01:21;15.45;;;13.05;;
38785;SDS011;24535;45.508;12.252;2022-11-06T01:03:52;16.17;;;14.20;;
38785;SDS011;24535;45.508;12.252;2022-11-06T01:06:21;17.30;;;13.75;;
38785;SDS011;24535;45.508;12.252;2022-11-06T01:08:48;20.70;;;13.70;;
38785;SDS011;24535;45.508;12.252;2022-11-06T01:11:18;16.42;;;13.52;;
38785;SDS011;24535;45.508;12.252;2022-11-06T01:13:47;18.77;;;12.85;;
38785;SDS011;24535;45.508;12.252;2022-11-06T01:16:17;18.45;;;12.70;;
38785;SDS011;24535;45.508;12.252;2022-11-06T01:18:43;15.75;;;12.75;;
38785;SDS011;24535;45.508;12.252;2022-11-06T01:21:13;15.23;;;12.93;;
38785;SDS011;24535;45.508;12.252;2022-11-06T01:23:43;16.25;;;13.50;;
38785;SDS011;24535;45.508;12.252;2022-11-06T01:26:10;15.90;;;13.02;;
38785;SDS011;24535;45.508;12.252;2022-11-06T01:28:37;17.88;;;12.82;;
38785;SDS011;24535;45.508;12.252;2022-11-06T01:31:04;14.20;;;11.73;;
38785;SDS011;24535;45.508;12.252;2022-11-06T01:33:31;15.63;;;12.48;;
38785;SDS011;24535;45.508;12.252;2022-11-06T01:35:57;18.67;;;13.35;;
38785;SDS011;24535;45.508;12.252;2022-11-06T01:38:22;15.30;;;12.82;;
38785;SDS011;24535;45.508;12.252;2022-11-06T01:40:48;15.20;;;12.38;;
38785;SDS011;24535;45.508;12.252;2022-11-06T01:43:21;16.05;;;12.50;;
38785;SDS011;24535;45.508;12.252;2022-11-06T01:46:07;18.13;;;12.65;;
38785;SDS011;24535;45.508;12.252;2022-11-06T01:48:32;13.75;;;11.48;;
38785;SDS011;24535;45.508;12.252;2022-11-06T01:50:58;17.58;;;12.38;;
38785;SDS011;24535;45.508;12.252;2022-11-06T01:53:23;16.23;;;12.93;;
38785;SDS011;24535;45.508;12.252;2022-11-06T01:55:50;13.48;;;11.95;;
38785;SDS011;24535;45.508;12.252;2022-11-06T01:58:19;18.75;;;13.65;;
38785;SDS011;24535;45.508;12.252;2022-11-06T02:00:47;13.57;;;10.85;;
38785;SDS011;24535;45.508;12.252;2022-11-06T02:03:13;15.02;;;11.98;;
38785;SDS011;24535;45.508;12.252;2022-11-06T02:05:40;12.82;;;11.18;;
38785;SDS011;24535;45.508;12.252;2022-11-06T02:08:06;19.15;;;12.63;;
38785;SDS011;24535;45.508;12.252;2022-11-06T02:10:34;16.38;;;11.32;;
38785;SDS011;24535;45.508;12.252;2022-11-06T02:15:30;14.02;;;11.70;;
38785;SDS011;24535;45.508;12.252;2022-11-06T02:18:26;15.25;;;11.60;;
38785;SDS011;24535;45.508;12.252;2022-11-06T02:30:05;12.45;;;11.15;;
38785;SDS011;24535;45.508;12.252;2022-11-06T02:37:50;15.27;;;11.60;;
38785;SDS011;24535;45.508;12.252;2022-11-06T02:40:19;16.65;;;11.82;;
38785;SDS011;24535;45.508;12.252;2022-11-06T02:42:48;14.30;;;11.90;;
38785;SDS011;24535;45.508;12.252;2022-11-06T02:45:17;14.00;;;11.68;;
38785;SDS011;24535;45.508;12.252;2022-11-06T02:47:45;16.23;;;11.98;;
38785;SDS011;24535;45.508;12.252;2022-11-06T02:50:19;11.93;;;10.65;;
38785;SDS011;24535;45.508;12.252;2022-11-06T02:52:50;16.23;;;11.40;;
38785;SDS011;24535;45.508;12.252;2022-11-06T02:55:30;11.80;;;10.60;;
38785;SDS011;24535;45.508;12.252;2022-11-06T02:58:02;13.27;;;9.35;;
38785;SDS011;24535;45.508;12.252;2022-11-06T03:00:44;14.35;;;11.38;;
38785;SDS011;24535;45.508;12.252;2022-11-06T03:03:22;13.65;;;11.48;;
38785;SDS011;24535;45.508;12.252;2022-11-06T03:08:24;13.50;;;10.55;;
38785;SDS011;24535;45.508;12.252;2022-11-06T03:11:13;13.02;;;10.32;;
38785;SDS011;24535;45.508;12.252;2022-11-06T03:13:54;11.10;;;9.43;;
38785;SDS011;24535;45.508;12.252;2022-11-06T03:22:27;11.15;;;10.05;;
38785;SDS011;24535;45.508;12.252;2022-11-06T03:30:25;13.27;;;10.88;;
38785;SDS011;24535;45.508;12.252;2022-11-06T03:35:46;13.82;;;11.52;;
38785;SDS011;24535;45.508;12.252;2022-11-06T03:38:22;17.05;;;12.18;;
38785;SDS011;24535;45.508;12.252;2022-11-06T03:40:54;13.82;;;11.10;;
38785;SDS011;24535;45.508;12.252;2022-11-06T03:43:27;13.65;;;11.57;;
38785;SDS011;24535;45.508;12.252;2022-11-06T03:45:56;16.00;;;11.10;;
38785;SDS011;24535;45.508;12.252;2022-11-06T03:48:27;14.80;;;9.82;;
38785;SDS011;24535;45.508;12.252;2022-11-06T03:51:09;10.15;;;9.15;;
38785;SDS011;24535;45.508;12.252;2022-11-06T03:53:47;11.20;;;9.95;;
38785;SDS011;24535;45.508;12.252;2022-11-06T03:56:21;15.23;;;10.75;;
38785;SDS011;24535;45.508;12.252;2022-11-06T03:58:52;12.55;;;10.32;;
38785;SDS011;24535;45.508;12.252;2022-11-06T04:01:24;12.75;;;10.23;;
38785;SDS011;24535;45.508;12.252;2022-11-06T04:03:57;10.60;;;9.43;;
38785;SDS011;24535;45.508;12.252;2022-11-06T04:09:05;11.77;;;10.15;;
38785;SDS011;24535;45.508;12.252;2022-11-06T04:11:53;12.10;;;10.05;;
38785;SDS011;24535;45.508;12.252;2022-11-06T04:14:40;11.40;;;9.27;;
38785;SDS011;24535;45.508;12.252;2022-11-06T04:17:10;12.45;;;9.98;;
38785;SDS011;24535;45.508;12.252;2022-11-06T04:19:38;14.98;;;9.75;;
38785;SDS011;24535;45.508;12.252;2022-11-06T04:22:59;14.77;;;10.52;;
38785;SDS011;24535;45.508;12.252;2022-11-06T04:25:29;13.88;;;9.70;;
38785;SDS011;24535;45.508;12.252;2022-11-06T04:28:31;15.15;;;10.20;;
38785;SDS011;24535;45.508;12.252;2022-11-06T04:31:07;10.82;;;9.55;;
38785;SDS011;24535;45.508;12.252;2022-11-06T04:33:57;11.18;;;9.70;;
38785;SDS011;24535;45.508;12.252;2022-11-06T04:36:48;12.68;;;9.23;;
38785;SDS011;24535;45.508;12.252;2022-11-06T04:39:58;10.40;;;8.77;;
38785;SDS011;24535;45.508;12.252;2022-11-06T04:42:27;10.13;;;8.93;;
38785;SDS011;24535;45.508;12.252;2022-11-06T04:45:02;11.38;;;8.48;;
38785;SDS011;24535;45.508;12.252;2022-11-06T04:47:31;14.40;;;8.68;;
38785;SDS011;24535;45.508;12.252;2022-11-06T04:49:58;10.60;;;8.63;;
38785;SDS011;24535;45.508;12.252;2022-11-06T04:52:26;12.20;;;9.60;;
38785;SDS011;24535;45.508;12.252;2022-11-06T04:54:53;9.70;;;8.80;;
38785;SDS011;24535;45.508;12.252;2022-11-06T04:57:23;11.95;;;9.13;;
38785;SDS011;24535;45.508;12.252;2022-11-06T04:59:49;11.57;;;9.57;;
38785;SDS011;24535;45.508;12.252;2022-11-06T05:02:14;12.07;;;9.75;;
38785;SDS011;24535;45.508;12.252;2022-11-06T05:04:40;11.90;;;9.35;;
38785;SDS011;24535;45.508;12.252;2022-11-06T05:07:05;15.38;;;9.88;;
38785;SDS011;24535;45.508;12.252;2022-11-06T05:09:30;13.98;;;9.40;;
38785;SDS011;24535;45.508;12.252;2022-11-06T05:11:56;9.38;;;8.45;;
38785;SDS011;24535;45.508;12.252;2022-11-06T05:14:21;9.02;;;7.15;;
38785;SDS011;24535;45.508;12.252;2022-11-06T05:16:47;8.68;;;7.57;;
38785;SDS011;24535;45.508;12.252;2022-11-06T05:19:12;8.85;;;7.95;;
38785;SDS011;24535;45.508;12.252;2022-11-06T05:21:38;9.52;;;7.72;;
38785;SDS011;24535;45.508;12.252;2022-11-06T05:24:21;8.77;;;6.93;;
38785;SDS011;24535;45.508;12.252;2022-11-06T05:26:47;10.00;;;7.18;;
38785;SDS011;24535;45.508;12.252;2022-11-06T05:29:12;8.48;;;6.65;;
38785;SDS011;24535;45.508;12.252;2022-11-06T05:31:38;8.70;;;6.82;;
38785;SDS011;24535;45.508;12.252;2022-11-06T05:34:03;8.60;;;7.30;;
38785;SDS011;24535;45.508;12.252;2022-11-06T05:36:29;10.40;;;7.30;;
38785;SDS011;24535;45.508;12.252;2022-11-06T05:38:54;8.75;;;7.00;;
38785;SDS011;24535;45.508;12.252;2022-11-06T05:41:20;10.85;;;7.32;;
38785;SDS011;24535;45.508;12.252;2022-11-06T05:43:45;8.38;;;6.60;;
38785;SDS011;24535;45.508;12.252;2022-11-06T05:46:11;10.48;;;8.13;;
38785;SDS011;24535;45.508;12.252;2022-11-06T05:48:36;9.75;;;7.07;;
38785;SDS011;24535;45.508;12.252;2022-11-06T05:51:03;9.45;;;7.18;;
38785;SDS011;24535;45.508;12.252;2022-11-06T05:53:30;13.52;;;8.00;;
38785;SDS011;24535;45.508;12.252;2022-11-06T05:55:58;9.65;;;8.57;;
38785;SDS011;24535;45.508;12.252;2022-11-06T05:58:24;9.77;;;8.43;;
38785;SDS011;24535;45.508;12.252;2022-11-06T06:00:50;8.45;;;7.63;;
38785;SDS011;24535;45.508;12.252;2022-11-06T06:03:27;10.52;;;8.02;;
38785;SDS011;24535;45.508;12.252;2022-11-06T06:05:53;8.68;;;6.93;;
38785;SDS011;24535;45.508;12.252;2022-11-06T06:08:18;9.95;;;7.28;;
38785;SDS011;24535;45.508;12.252;2022-11-06T06:10:44;10.65;;;6.90;;
38785;SDS011;24535;45.508;12.252;2022-11-06T06:13:10;8.27;;;6.90;;
38785;SDS011;24535;45.508;12.252;2022-11-06T06:15:36;8.18;;;6.50;;
38785;SDS011;24535;45.508;12.252;2022-11-06T06:18:02;8.50;;;6.55;;
38785;SDS011;24535;45.508;12.252;2022-11-06T06:20:28;8.63;;;6.75;;
38785;SDS011;24535;45.508;12.252;2022-11-06T06:22:54;12.15;;;6.53;;
38785;SDS011;24535;45.508;12.252;2022-11-06T06:25:20;8.98;;;7.20;;
38785;SDS011;24535;45.508;12.252;2022-11-06T06:27:45;11.40;;;7.53;;
38785;SDS011;24535;45.508;12.252;2022-11-06T06:30:11;11.70;;;7.50;;
38785;SDS011;24535;45.508;12.252;2022-11-06T06:32:36;9.20;;;7.18;;
38785;SDS011;24535;45.508;12.252;2022-11-06T06:35:02;10.70;;;7.72;;
38785;SDS011;24535;45.508;12.252;2022-11-06T06:37:28;9.07;;;7.47;;
38785;SDS011;24535;45.508;12.252;2022-11-06T06:39:53;9.55;;;6.55;;
38785;SDS011;24535;45.508;12.252;2022-11-06T06:42:19;7.45;;;6.53;;
38785;SDS011;24535;45.508;12.252;2022-11-06T06:44:44;10.10;;;7.03;;
38785;SDS011;24535;45.508;12.252;2022-11-06T06:47:10;8.48;;;7.10;;
38785;SDS011;24535;45.508;12.252;2022-11-06T06:49:35;7.90;;;6.65;;
38785;SDS011;24535;45.508;12.252;2022-11-06T06:52:00;9.43;;;7.15;;
38785;SDS011;24535;45.508;12.252;2022-11-06T06:54:26;11.25;;;6.65;;
38785;SDS011;24535;45.508;12.252;2022-11-06T06:56:51;9.05;;;6.50;;
38785;SDS011;24535;45.508;12.252;2022-11-06T06:59:17;7.80;;;6.35;;
38785;SDS011;24535;45.508;12.252;2022-11-06T07:01:42;6.90;;;5.63;;
38785;SDS011;24535;45.508;12.252;2022-11-06T07:04:08;10.43;;;6.63;;
38785;SDS011;24535;45.508;12.252;2022-11-06T07:06:34;6.22;;;5.38;;
38785;SDS011;24535;45.508;12.252;2022-11-06T07:09:00;6.57;;;5.57;;
38785;SDS011;24535;45.508;12.252;2022-11-06T07:11:25;5.82;;;4.55;;
38785;SDS011;24535;45.508;12.252;2022-11-06T07:13:51;5.65;;;5.13;;
38785;SDS011;24535;45.508;12.252;2022-11-06T07:16:16;5.93;;;4.50;;
38785;SDS011;24535;45.508;12.252;2022-11-06T07:18:42;5.90;;;4.28;;
38785;SDS011;24535;45.508;12.252;2022-11-06T07:21:08;9.93;;;4.72;;
38785;SDS011;24535;45.508;12.252;2022-11-06T07:23:36;7.20;;;5.00;;
38785;SDS011;24535;45.508;12.252;2022-11-06T07:28:37;7.28;;;4.57;;
38785;SDS011;24535;45.508;12.252;2022-11-06T07:31:03;6.75;;;5.03;;
38785;SDS011;24535;45.508;12.252;2022-11-06T07:33:31;6.33;;;4.67;;
38785;SDS011;24535;45.508;12.252;2022-11-06T07:36:01;5.80;;;4.43;;
38785;SDS011;24535;45.508;12.252;2022-11-06T07:38:27;6.47;;;4.50;;
38785;SDS011;24535;45.508;12.252;2022-11-06T07:40:53;4.60;;;3.90;;
38785;SDS011;24535;45.508;12.252;2022-11-06T07:43:18;3.70;;;3.10;;
38785;SDS011;24535;45.508;12.252;2022-11-06T07:45:44;3.92;;;3.50;;
38785;SDS011;24535;45.508;12.252;2022-11-06T07:48:09;3.47;;;2.63;;
38785;SDS011;24535;45.508;12.252;2022-11-06T07:50:34;5.35;;;3.88;;
38785;SDS011;24535;45.508;12.252;2022-11-06T07:53:00;4.70;;;3.50;;
38785;SDS011;24535;45.508;12.252;2022-11-06T07:55:27;6.15;;;3.15;;
38785;SDS011;24535;45.508;12.252;2022-11-06T07:57:52;3.75;;;2.63;;
38785;SDS011;24535;45.508;12.252;2022-11-06T08:00:18;4.35;;;2.50;;
38785;SDS011;24535;45.508;12.252;2022-11-06T08:02:46;3.00;;;2.47;;
38785;SDS011;24535;45.508;12.252;2022-11-06T08:05:15;2.70;;;2.35;;
38785;SDS011;24535;45.508;12.252;2022-11-06T08:07:41;3.75;;;2.72;;
38785;SDS011;24535;45.508;12.252;2022-11-06T08:10:06;3.13;;;2.10;;
38785;SDS011;24535;45.508;12.252;2022-11-06T08:12:32;2.65;;;2.35;;
38785;SDS011;24535;45.508;12.252;2022-11-06T08:14:57;2.28;;;1.95;;
38785;SDS011;24535;45.508;12.252;2022-11-06T08:17:22;3.47;;;2.55;;
38785;SDS011;24535;45.508;12.252;2022-11-06T08:19:48;2.78;;;2.30;;
38785;SDS011;24535;45.508;12.252;2022-11-06T08:22:21;6.05;;;2.28;;
38785;SDS011;24535;45.508;12.252;2022-11-06T08:24:50;4.30;;;2.33;;
38785;SDS011;24535;45.508;12.252;2022-11-06T08:27:15;4.70;;;2.00;;
38785;SDS011;24535;45.508;12.252;2022-11-06T08:29:41;2.60;;;1.92;;
38785;SDS011;24535;45.508;12.252;2022-11-06T08:32:06;3.05;;;2.15;;
38785;SDS011;24535;45.508;12.252;2022-11-06T08:34:33;3.05;;;1.80;;
38785;SDS011;24535;45.508;12.252;2022-11-06T08:36:59;2.63;;;2.00;;
38785;SDS011;24535;45.508;12.252;2022-11-06T08:39:24;3.08;;;2.10;;
38785;SDS011;24535;45.508;12.252;2022-11-06T08:41:50;3.30;;;2.55;;
38785;SDS011;24535;45.508;12.252;2022-11-06T08:44:15;2.72;;;1.83;;
38785;SDS011;24535;45.508;12.252;2022-11-06T08:46:40;2.08;;;1.40;;
38785;SDS011;24535;45.508;12.252;2022-11-06T08:49:06;2.50;;;1.80;;
38785;SDS011;24535;45.508;12.252;2022-11-06T08:51:31;4.80;;;1.85;;
38785;SDS011;24535;45.508;12.252;2022-11-06T08:53:56;3.83;;;2.20;;
38785;SDS011;24535;45.508;12.252;2022-11-06T08:56:22;3.35;;;2.20;;
38785;SDS011;24535;45.508;12.252;2022-11-06T08:58:48;4.43;;;2.72;;
38785;SDS011;24535;45.508;12.252;2022-11-06T09:01:13;2.22;;;2.00;;
38785;SDS011;24535;45.508;12.252;2022-11-06T09:03:38;4.25;;;2.00;;
38785;SDS011;24535;45.508;12.252;2022-11-06T09:06:05;4.20;;;2.00;;
38785;SDS011;24535;45.508;12.252;2022-11-06T09:08:31;3.42;;;1.83;;
38785;SDS011;24535;45.508;12.252;2022-11-06T09:10:56;4.10;;;2.35;;
38785;SDS011;24535;45.508;12.252;2022-11-06T09:13:23;3.63;;;1.98;;
38785;SDS011;24535;45.508;12.252;2022-11-06T09:15:48;3.63;;;2.10;;
38785;SDS011;24535;45.508;12.252;2022-11-06T09:18:14;2.65;;;1.95;;
38785;SDS011;24535;45.508;12.252;2022-11-06T09:20:39;2.70;;;1.90;;
38785;SDS011;24535;45.508;12.252;2022-11-06T09:23:06;2.80;;;1.60;;
38785;SDS011;24535;45.508;12.252;2022-11-06T09:25:33;2.38;;;1.70;;
38785;SDS011;24535;45.508;12.252;2022-11-06T09:27:58;4.22;;;1.88;;
38785;SDS011;24535;45.508;12.252;2022-11-06T09:30:25;2.78;;;2.10;;
38785;SDS011;24535;45.508;12.252;2022-11-06T09:32:55;8.70;;;1.65;;
38785;SDS011;24535;45.508;12.252;2022-11-06T09:38:13;2.67;;;2.00;;
38785;SDS011;24535;45.508;12.252;2022-11-06T10:34:22;2.20;;;1.13;;
38785;SDS011;24535;45.508;12.252;2022-11-06T10:37:48;1.17;;;0.80;;
38785;SDS011;24535;45.508;12.252;2022-11-06T10:40:42;1.30;;;0.70;;
38785;SDS011;24535;45.508;12.252;2022-11-06T10:46:45;1.92;;;0.85;;
38785;SDS011;24535;45.508;12.252;2022-11-06T10:50:05;8.10;;;1.40;;
38785;SDS011;24535;45.508;12.252;2022-11-06T11:48:58;5.35;;;0.90;;
38785;SDS011;24535;45.508;12.252;2022-11-06T11:51:41;1.20;;;0.75;;
38785;SDS011;24535;45.508;12.252;2022-11-06T11:54:17;3.00;;;0.90;;
38785;SDS011;24535;45.508;12.252;2022-11-06T12:02:30;4.03;;;1.00;;
38785;SDS011;24535;45.508;12.252;2022-11-06T12:05:09;3.47;;;1.17;;
38785;SDS011;24535;45.508;12.252;2022-11-06T12:07:46;2.33;;;1.10;;
38785;SDS011;24535;45.508;12.252;2022-11-06T12:13:16;1.02;;;0.70;;
38785;SDS011;24535;45.508;12.252;2022-11-06T12:18:11;1.67;;;0.90;;
38785;SDS011;24535;45.508;12.252;2022-11-06T12:20:53;1.98;;;1.13;;
38785;SDS011;24535;45.508;12.252;2022-11-06T12:23:29;3.00;;;1.00;;
38785;SDS011;24535;45.508;12.252;2022-11-06T12:28:50;1.30;;;0.80;;
38785;SDS011;24535;45.508;12.252;2022-11-06T12:31:35;2.00;;;0.95;;
38785;SDS011;24535;45.508;12.252;2022-11-06T12:34:18;1.75;;;1.00;;
38785;SDS011;24535;45.508;12.252;2022-11-06T12:36:55;2.15;;;0.80;;
38785;SDS011;24535;45.508;12.252;2022-11-06T12:39:42;1.73;;;0.95;;
38785;SDS011;24535;45.508;12.252;2022-11-06T12:42:14;1.17;;;0.68;;
38785;SDS011;24535;45.508;12.252;2022-11-06T12:44:41;1.50;;;0.93;;
38785;SDS011;24535;45.508;12.252;2022-11-06T12:55:42;1.75;;;0.80;;
38785;SDS011;24535;45.508;12.252;2022-11-06T13:03:51;1.20;;;0.80;;
38785;SDS011;24535;45.508;12.252;2022-11-06T13:15:18;3.42;;;0.93;;
38785;SDS011;24535;45.508;12.252;2022-11-06T13:25:37;2.65;;;1.20;;
38785;SDS011;24535;45.508;12.252;2022-11-06T13:31:20;1.70;;;1.33;;
38785;SDS011;24535;45.508;12.252;2022-11-06T13:33:50;1.05;;;0.85;;
38785;SDS011;24535;45.508;12.252;2022-11-06T13:36:20;2.72;;;1.27;;
38785;SDS011;24535;45.508;12.252;2022-11-06T13:39:12;2.35;;;1.00;;
38785;SDS011;24535;45.508;12.252;2022-11-06T13:41:39;5.32;;;1.35;;
38785;SDS011;24535;45.508;12.252;2022-11-06T13:44:06;2.33;;;1.30;;
38785;SDS011;24535;45.508;12.252;2022-11-06T13:46:53;2.13;;;1.10;;
38785;SDS011;24535;45.508;12.252;2022-11-06T13:49:54;1.50;;;0.88;;
38785;SDS011;24535;45.508;12.252;2022-11-06T14:03:44;2.47;;;0.90;;
38785;SDS011;24535;45.508;12.252;2022-11-06T14:06:17;2.70;;;1.15;;
38785;SDS011;24535;45.508;12.252;2022-11-06T14:08:53;1.35;;;1.00;;
38785;SDS011;24535;45.508;12.252;2022-11-06T14:11:32;2.67;;;1.10;;
38785;SDS011;24535;45.508;12.252;2022-11-06T14:16:30;2.03;;;1.15;;
38785;SDS011;24535;45.508;12.252;2022-11-06T14:19:59;1.92;;;0.77;;
38785;SDS011;24535;45.508;12.252;2022-11-06T14:22:15;1.20;;;0.73;;
38785;SDS011;24535;45.508;12.252;2022-11-06T14:24:41;1.85;;;0.65;;
38785;SDS011;24535;45.508;12.252;2022-11-06T14:30:04;3.08;;;1.10;;
38785;SDS011;24535;45.508;12.252;2022-11-06T14:32:45;2.10;;;1.27;;
38785;SDS011;24535;45.508;12.252;2022-11-06T14:38:09;4.18;;;1.23;;
38785;SDS011;24535;45.508;12.252;2022-11-06T14:40:41;2.50;;;1.23;;
38785;SDS011;24535;45.508;12.252;2022-11-06T14:43:21;1.75;;;1.00;;
38785;SDS011;24535;45.508;12.252;2022-11-06T14:45:49;2.97;;;1.02;;
38785;SDS011;24535;45.508;12.252;2022-11-06T14:48:25;2.05;;;0.95;;
38785;SDS011;24535;45.508;12.252;2022-11-06T14:50:53;1.58;;;0.95;;
38785;SDS011;24535;45.508;12.252;2022-11-06T14:53:22;2.25;;;1.27;;
38785;SDS011;24535;45.508;12.252;2022-11-06T14:56:02;2.03;;;0.90;;
38785;SDS011;24535;45.508;12.252;2022-11-06T14:58:49;1.23;;;0.75;;
38785;SDS011;24535;45.508;12.252;2022-11-06T15:03:59;3.72;;;1.52;;
38785;SDS011;24535;45.508;12.252;2022-11-06T15:11:47;2.75;;;1.77;;
38785;SDS011;24535;45.508;12.252;2022-11-06T15:16:44;6.30;;;1.90;;
38785;SDS011;24535;45.508;12.252;2022-11-06T15:19:18;4.78;;;2.17;;
38785;SDS011;24535;45.508;12.252;2022-11-06T15:21:52;3.97;;;1.70;;
38785;SDS011;24535;45.508;12.252;2022-11-06T15:24:35;2.50;;;1.83;;
38785;SDS011;24535;45.508;12.252;2022-11-06T15:27:07;3.20;;;1.95;;
38785;SDS011;24535;45.508;12.252;2022-11-06T15:29:39;5.03;;;2.35;;
38785;SDS011;24535;45.508;12.252;2022-11-06T15:32:11;3.78;;;1.85;;
38785;SDS011;24535;45.508;12.252;2022-11-06T15:34:43;5.35;;;1.90;;
38785;SDS011;24535;45.508;12.252;2022-11-06T15:37:19;3.42;;;2.33;;
38785;SDS011;24535;45.508;12.252;2022-11-06T15:39:50;2.97;;;1.55;;
38785;SDS011;24535;45.508;12.252;2022-11-06T15:42:19;3.22;;;2.03;;
38785;SDS011;24535;45.508;12.252;2022-11-06T15:44:51;4.10;;;1.65;;
38785;SDS011;24535;45.508;12.252;2022-11-06T15:49:48;4.10;;;1.42;;
38785;SDS011;24535;45.508;12.252;2022-11-06T15:52:39;3.42;;;1.58;;
38785;SDS011;24535;45.508;12.252;2022-11-06T15:55:11;4.10;;;2.10;;
38785;SDS011;24535;45.508;12.252;2022-11-06T15:57:40;5.60;;;1.98;;
38785;SDS011;24535;45.508;12.252;2022-11-06T16:00:07;2.50;;;1.58;;
38785;SDS011;24535;45.508;12.252;2022-11-06T16:02:45;6.95;;;1.95;;
38785;SDS011;24535;45.508;12.252;2022-11-06T16:05:15;10.32;;;2.95;;
38785;SDS011;24535;45.508;12.252;2022-11-06T16:07:43;3.80;;;2.30;;
38785;SDS011;24535;45.508;12.252;2022-11-06T16:10:12;3.43;;;2.20;;
38785;SDS011;24535;45.508;12.252;2022-11-06T16:12:42;3.83;;;2.53;;
38785;SDS011;24535;45.508;12.252;2022-11-06T16:23:21;7.00;;;4.63;;
38785;SDS011;24535;45.508;12.252;2022-11-06T16:25:55;6.88;;;4.15;;
38785;SDS011;24535;45.508;12.252;2022-11-06T16:32:21;8.90;;;4.55;;
38785;SDS011;24535;45.508;12.252;2022-11-06T16:37:35;8.60;;;5.47;;
38785;SDS011;24535;45.508;12.252;2022-11-06T16:43:34;6.80;;;5.10;;
38785;SDS011;24535;45.508;12.252;2022-11-06T16:46:00;7.32;;;4.75;;
38785;SDS011;24535;45.508;12.252;2022-11-06T16:49:04;4.10;;;3.25;;
38785;SDS011;24535;45.508;12.252;2022-11-06T16:59:13;6.05;;;3.97;;
38785;SDS011;24535;45.508;12.252;2022-11-06T17:01:50;8.00;;;4.80;;
38785;SDS011;24535;45.508;12.252;2022-11-06T17:04:23;5.95;;;4.57;;
38785;SDS011;24535;45.508;12.252;2022-11-06T17:07:24;6.28;;;4.68;;
38785;SDS011;24535;45.508;12.252;2022-11-06T17:09:50;7.25;;;5.15;;
38785;SDS011;24535;45.508;12.252;2022-11-06T17:12:15;9.85;;;6.15;;
38785;SDS011;24535;45.508;12.252;2022-11-06T17:14:41;10.95;;;7.00;;
38785;SDS011;24535;45.508;12.252;2022-11-06T17:20:01;13.32;;;7.53;;
38785;SDS011;24535;45.508;12.252;2022-11-06T17:22:27;8.23;;;6.68;;
38785;SDS011;24535;45.508;12.252;2022-11-06T17:24:53;10.80;;;7.78;;
38785;SDS011;24535;45.508;12.252;2022-11-06T17:27:19;10.02;;;7.63;;
38785;SDS011;24535;45.508;12.252;2022-11-06T17:29:44;11.77;;;8.70;;
38785;SDS011;24535;45.508;12.252;2022-11-06T17:32:12;9.70;;;7.68;;
38785;SDS011;24535;45.508;12.252;2022-11-06T17:34:43;11.53;;;7.83;;
38785;SDS011;24535;45.508;12.252;2022-11-06T17:37:09;11.52;;;9.10;;
38785;SDS011;24535;45.508;12.252;2022-11-06T17:39:41;12.77;;;10.10;;
38785;SDS011;24535;45.508;12.252;2022-11-06T17:42:07;14.88;;;9.70;;
38785;SDS011;24535;45.508;12.252;2022-11-06T17:44:32;15.55;;;10.38;;
38785;SDS011;24535;45.508;12.252;2022-11-06T17:46:58;14.63;;;10.07;;
38785;SDS011;24535;45.508;12.252;2022-11-06T17:49:23;14.45;;;9.82;;
38785;SDS011;24535;45.508;12.252;2022-11-06T17:51:49;14.85;;;9.70;;
38785;SDS011;24535;45.508;12.252;2022-11-06T17:54:17;10.55;;;8.55;;
38785;SDS011;24535;45.508;12.252;2022-11-06T17:56:44;12.10;;;7.97;;
38785;SDS011;24535;45.508;12.252;2022-11-06T17:59:13;9.48;;;7.07;;
38785;SDS011;24535;45.508;12.252;2022-11-06T18:01:39;12.43;;;8.43;;
38785;SDS011;24535;45.508;12.252;2022-11-06T18:04:05;12.18;;;9.35;;
38785;SDS011;24535;45.508;12.252;2022-11-06T18:06:31;14.57;;;10.60;;
38785;SDS011;24535;45.508;12.252;2022-11-06T18:09:01;12.02;;;9.60;;
38785;SDS011;24535;45.508;12.252;2022-11-06T18:11:27;15.40;;;12.02;;
38785;SDS011;24535;45.508;12.252;2022-11-06T18:13:54;15.50;;;11.45;;
38785;SDS011;24535;45.508;12.252;2022-11-06T18:16:21;17.52;;;13.30;;
38785;SDS011;24535;45.508;12.252;2022-11-06T18:19:09;22.13;;;16.17;;
38785;SDS011;24535;45.508;12.252;2022-11-06T18:21:48;23.00;;;16.25;;
38785;SDS011;24535;45.508;12.252;2022-11-06T18:24:37;18.20;;;14.05;;
38785;SDS011;24535;45.508;12.252;2022-11-06T18:27:02;15.33;;;13.43;;
38785;SDS011;24535;45.508;12.252;2022-11-06T18:29:28;19.02;;;12.95;;
38785;SDS011;24535;45.508;12.252;2022-11-06T18:31:53;21.10;;;15.40;;
38785;SDS011;24535;45.508;12.252;2022-11-06T18:34:18;22.90;;;17.45;;
38785;SDS011;24535;45.508;12.252;2022-11-06T18:36:45;27.52;;;19.27;;
38785;SDS011;24535;45.508;12.252;2022-11-06T18:39:14;24.00;;;20.35;;
38785;SDS011;24535;45.508;12.252;2022-11-06T18:41:40;29.02;;;20.70;;
38785;SDS011;24535;45.508;12.252;2022-11-06T18:44:05;30.77;;;19.33;;
38785;SDS011;24535;45.508;12.252;2022-11-06T18:46:30;28.83;;;20.92;;
38785;SDS011;24535;45.508;12.252;2022-11-06T18:48:56;24.40;;;19.33;;
38785;SDS011;24535;45.508;12.252;2022-11-06T18:51:31;24.13;;;17.92;;
38785;SDS011;24535;45.508;12.252;2022-11-06T18:53:57;23.98;;;16.83;;
38785;SDS011;24535;45.508;12.252;2022-11-06T18:56:24;22.80;;;16.52;;
38785;SDS011;24535;45.508;12.252;2022-11-06T18:58:51;22.33;;;16.85;;
38785;SDS011;24535;45.508;12.252;2022-11-06T19:01:17;20.90;;;15.40;;
38785;SDS011;24535;45.508;12.252;2022-11-06T19:03:43;19.23;;;14.80;;
38785;SDS011;24535;45.508;12.252;2022-11-06T19:06:11;20.27;;;14.95;;